createdAt,value
2019-03-15T00:01:48.438Z,164959.11
2019-03-15T00:04:16.521Z,164948.44
2019-03-15T00:06:44.635Z,164948.44
2019-03-15T00:09:12.730Z,164949.73
2019-03-15T00:11:40.881Z,164935.13
2019-03-15T00:14:08.964Z,164919.13
2019-03-15T00:16:37.207Z,164920.47
2019-03-15T00:19:05.293Z,164911.14
2019-03-15T00:21:33.421Z,164920.47
2019-03-15T00:24:01.606Z,164924.45
2019-03-15T00:26:29.700Z,164949.73
2019-03-15T00:28:57.807Z,164956.41
2019-03-15T00:31:26.067Z,164943.09
2019-03-15T00:33:54.294Z,164969.73
2019-03-15T00:36:22.989Z,164960.41
2019-03-15T00:38:51.212Z,164961.75
2019-03-15T00:41:19.502Z,164967.09
2019-03-15T00:43:49.408Z,164947.09
2019-03-15T00:46:17.959Z,164940.41
2019-03-15T00:48:46.458Z,164936.42
2019-03-15T00:51:14.893Z,164937.77
2019-03-15T00:53:42.972Z,164935.13
2019-03-15T00:56:11.690Z,164931.08
2019-03-15T00:58:39.878Z,164912.44
2019-03-15T01:01:08.276Z,164881.83
2019-03-15T01:03:36.411Z,164873.80
2019-03-15T01:06:04.592Z,164883.13
2019-03-15T01:08:32.897Z,164876.48
2019-03-15T01:11:01.303Z,164881.83
2019-03-15T01:13:29.529Z,164868.47
2019-03-15T01:15:57.936Z,164884.47
2019-03-15T01:18:26.189Z,164899.13
2019-03-15T01:20:54.336Z,164895.13
2019-03-15T01:23:22.598Z,164881.83
2019-03-15T01:25:51.006Z,164889.80
2019-03-15T01:28:19.103Z,164887.16
2019-03-15T01:30:47.222Z,164880.47
2019-03-15T01:33:15.835Z,164879.13
2019-03-15T01:35:43.963Z,164875.14
2019-03-15T01:38:12.091Z,164875.14
2019-03-15T01:40:40.233Z,164863.19
2019-03-15T01:43:08.671Z,164859.14
2019-03-15T01:45:37.190Z,164873.80
2019-03-15T01:48:05.411Z,164884.47
2019-03-15T01:50:33.571Z,164868.47
2019-03-15T01:53:01.683Z,164845.83
2019-03-15T01:55:29.762Z,164825.84
2019-03-15T01:57:57.998Z,164840.50
2019-03-15T02:00:26.557Z,164849.81
2019-03-15T02:02:54.855Z,164848.53
2019-03-15T02:05:22.941Z,164863.19
2019-03-15T02:07:51.079Z,164864.47
2019-03-15T02:10:21.874Z,164856.50
2019-03-15T02:12:49.642Z,164860.48
2019-03-15T02:15:18.501Z,164855.16
2019-03-15T02:17:46.824Z,164861.83
2019-03-15T02:20:14.990Z,164852.52
2019-03-15T02:22:43.183Z,164864.47
2019-03-15T02:25:11.548Z,164863.19
2019-03-15T02:27:39.760Z,164879.13
2019-03-15T02:30:08.667Z,164864.47
2019-03-15T02:32:37.130Z,164859.14
2019-03-15T02:35:05.368Z,164855.16
2019-03-15T02:37:33.890Z,164852.52
2019-03-15T02:40:02.379Z,164857.84
2019-03-15T02:42:30.701Z,164847.17
2019-03-15T02:44:59.504Z,164812.53
2019-03-15T02:47:27.583Z,164824.55
2019-03-15T02:49:55.691Z,164813.88
2019-03-15T02:52:23.841Z,164799.22
2019-03-15T02:54:52.051Z,164791.19
2019-03-15T02:57:20.151Z,164791.19
2019-03-15T02:59:48.569Z,164772.56
2019-03-15T03:02:16.695Z,164759.25
2019-03-15T03:04:45.664Z,164751.28
2019-03-15T03:07:13.772Z,164747.28
2019-03-15T03:09:42.339Z,164751.28
2019-03-15T03:12:10.460Z,164743.25
2019-03-15T03:14:40.343Z,164748.58
2019-03-15T03:17:08.614Z,164760.59
2019-03-15T03:19:36.670Z,164751.28
2019-03-15T03:22:04.832Z,164741.95
2019-03-15T03:24:32.945Z,164731.28
2019-03-15T03:27:01.063Z,164729.94
2019-03-15T03:29:30.014Z,164716.64
2019-03-15T03:31:58.241Z,164714.00
2019-03-15T03:34:26.394Z,164716.64
2019-03-15T03:36:57.836Z,164717.98
2019-03-15T03:39:24.739Z,164700.59
2019-03-15T03:41:53.062Z,164723.31
2019-03-15T03:44:21.306Z,164717.98
2019-03-15T03:46:49.472Z,164691.28
2019-03-15T03:49:17.732Z,164703.34
2019-03-15T03:51:45.863Z,164705.97
2019-03-15T03:54:14.221Z,164697.95
2019-03-15T03:56:43.398Z,164703.34
2019-03-15T03:59:11.603Z,164697.95
2019-03-15T04:01:39.783Z,164666.02
2019-03-15T04:04:08.356Z,164688.63
2019-03-15T04:06:36.941Z,164687.28
2019-03-15T04:09:07.276Z,164696.61
2019-03-15T04:11:35.389Z,164688.63
2019-03-15T04:14:03.490Z,164689.98
2019-03-15T04:16:31.696Z,164677.97
2019-03-15T04:18:59.873Z,164671.30
2019-03-15T04:21:28.029Z,164675.33
2019-03-15T04:23:56.124Z,164676.63
2019-03-15T04:26:24.246Z,164671.30
2019-03-15T04:28:52.354Z,164691.28
2019-03-15T04:31:20.567Z,164692.63
2019-03-15T04:33:48.761Z,164705.97
2019-03-15T04:36:17.120Z,164714.00
2019-03-15T04:38:45.179Z,164725.97
2019-03-15T04:41:13.417Z,164719.28
2019-03-15T04:43:42.077Z,164727.31
2019-03-15T04:46:10.284Z,164747.28
2019-03-15T04:48:38.481Z,164747.28
2019-03-15T04:51:07.020Z,164757.91
2019-03-15T04:53:35.090Z,164753.92
2019-03-15T04:56:03.376Z,164753.92
2019-03-15T04:58:31.775Z,164756.61
2019-03-15T05:00:59.874Z,164744.59
2019-03-15T05:03:28.013Z,164761.94
2019-03-15T05:06:03.187Z,164756.61
2019-03-15T05:08:26.253Z,164759.25
2019-03-15T05:10:54.365Z,164753.92
2019-03-15T05:13:22.980Z,164721.97
2019-03-15T05:15:51.093Z,164727.31
2019-03-15T05:18:19.242Z,164732.64
2019-03-15T05:20:47.743Z,164753.92
2019-03-15T05:23:16.417Z,164740.61
2019-03-15T05:25:44.512Z,164740.61
2019-03-15T05:28:12.797Z,164720.63
2019-03-15T05:30:40.889Z,164708.67
2019-03-15T05:33:09.093Z,164716.64
2019-03-15T05:35:37.207Z,164708.67
2019-03-15T05:38:05.708Z,164700.59
2019-03-15T05:40:33.898Z,164711.31
2019-03-15T05:43:01.981Z,164717.98
2019-03-15T05:45:30.135Z,164714.00
2019-03-15T05:47:58.424Z,164714.00
2019-03-15T05:50:26.709Z,164719.28
2019-03-15T05:52:54.818Z,164724.61
2019-03-15T05:55:22.970Z,164735.28
2019-03-15T05:57:51.910Z,164717.98
2019-03-15T06:00:20.335Z,164733.94
2019-03-15T06:02:48.489Z,164720.63
2019-03-15T06:05:17.120Z,164720.63
2019-03-15T06:07:45.270Z,164745.94
2019-03-15T06:10:13.430Z,164748.58
2019-03-15T06:12:41.652Z,164763.23
2019-03-15T06:15:09.951Z,164767.22
2019-03-15T06:17:38.447Z,164753.92
2019-03-15T06:20:07.419Z,164773.91
2019-03-15T06:22:35.733Z,164761.94
2019-03-15T06:25:04.253Z,164781.88
2019-03-15T06:27:32.543Z,164809.89
2019-03-15T06:30:00.771Z,164805.84
2019-03-15T06:32:29.687Z,164839.14
2019-03-15T06:34:57.865Z,164855.16
2019-03-15T06:37:26.032Z,164841.84
2019-03-15T06:39:55.059Z,164892.44
2019-03-15T06:42:23.936Z,164900.47
2019-03-15T06:44:58.029Z,164907.09
2019-03-15T06:47:22.117Z,164913.78
2019-03-15T06:49:50.299Z,164927.09
2019-03-15T06:52:18.415Z,164936.42
2019-03-15T06:54:46.563Z,164947.09
2019-03-15T06:57:14.653Z,164937.77
2019-03-15T06:59:42.913Z,164953.77
2019-03-15T07:02:10.982Z,165036.36
2019-03-15T07:04:39.261Z,164997.70
2019-03-15T07:07:07.338Z,165009.72
2019-03-15T07:09:35.547Z,165004.37
2019-03-15T07:12:09.415Z,165023.03
2019-03-15T07:14:34.016Z,165047.03
2019-03-15T07:17:02.171Z,165056.36
2019-03-15T07:19:30.705Z,165084.34
2019-03-15T07:21:59.049Z,165092.37
2019-03-15T07:24:27.306Z,165109.67
2019-03-15T07:26:55.383Z,165121.70
2019-03-15T07:29:23.526Z,165111.03
2019-03-15T07:31:51.771Z,165097.72
2019-03-15T07:34:19.987Z,165121.70
2019-03-15T07:36:48.227Z,165135.03
2019-03-15T07:39:16.329Z,165153.69
2019-03-15T07:41:44.476Z,165137.67
2019-03-15T07:44:12.564Z,165176.33
2019-03-15T07:46:40.836Z,165196.34
2019-03-15T07:49:09.016Z,165224.33
2019-03-15T07:51:37.197Z,165223.03
2019-03-15T07:54:05.935Z,165229.67
2019-03-15T07:56:34.046Z,165252.37
2019-03-15T07:59:02.290Z,165289.70
2019-03-15T08:01:30.473Z,165315.02
2019-03-15T08:03:58.560Z,165319.05
2019-03-15T08:06:34.551Z,165348.45
2019-03-15T08:08:56.829Z,165307.02
2019-03-15T08:11:25.381Z,165336.37
2019-03-15T08:13:53.634Z,165355.09
2019-03-15T08:16:21.746Z,165333.72
2019-03-15T08:18:49.857Z,165365.78
2019-03-15T08:21:18.061Z,165316.36
2019-03-15T08:23:46.189Z,165356.44
2019-03-15T08:26:14.336Z,165372.47
2019-03-15T08:28:43.281Z,165412.45
2019-03-15T08:31:11.576Z,165424.48
2019-03-15T08:33:39.704Z,165356.44
2019-03-15T08:36:07.802Z,165332.38
2019-03-15T08:38:46.878Z,165325.69
2019-03-15T08:41:06.123Z,165329.69
2019-03-15T08:43:34.859Z,165357.78
2019-03-15T08:46:03.375Z,165388.44
2019-03-15T08:48:32.064Z,165384.44
2019-03-15T08:51:00.388Z,165333.72
2019-03-15T08:53:28.959Z,165285.72
2019-03-15T08:55:57.528Z,165349.75
2019-03-15T08:58:25.849Z,165373.75
2019-03-15T09:00:53.928Z,165343.11
2019-03-15T09:03:27.693Z,165375.11
2019-03-15T09:05:52.885Z,165377.75
2019-03-15T09:08:21.043Z,165395.13
2019-03-15T09:10:49.149Z,165464.47
2019-03-15T09:13:17.491Z,165443.16
2019-03-15T09:15:45.678Z,165453.84
2019-03-15T09:18:13.859Z,165460.48
2019-03-15T09:20:42.287Z,165475.16
2019-03-15T09:23:10.464Z,165473.81
2019-03-15T09:25:38.643Z,165447.16
2019-03-15T09:28:06.833Z,165453.84
2019-03-15T09:30:35.288Z,165473.81
2019-03-15T09:33:03.501Z,165483.20
2019-03-15T09:35:31.741Z,165517.86
2019-03-15T09:37:59.905Z,165503.17
2019-03-15T09:40:28.046Z,165529.89
2019-03-15T09:42:56.545Z,165552.56
2019-03-15T09:45:28.210Z,165524.55
2019-03-15T09:47:56.330Z,165515.20
2019-03-15T09:50:35.937Z,165531.25
2019-03-15T09:52:54.720Z,165476.50
2019-03-15T09:55:32.771Z,165472.52
2019-03-15T09:57:52.827Z,165460.48
2019-03-15T10:00:20.916Z,165431.12
2019-03-15T10:02:49.028Z,165417.80
2019-03-15T10:05:21.367Z,165447.16
2019-03-15T10:07:49.628Z,165431.12
2019-03-15T10:10:19.885Z,165420.48
2019-03-15T10:12:48.097Z,165425.78
2019-03-15T10:15:18.070Z,165433.81
2019-03-15T10:17:46.669Z,165388.44
2019-03-15T10:20:15.724Z,165415.14
2019-03-15T10:22:44.774Z,165409.81
2019-03-15T10:25:13.442Z,165431.12
2019-03-15T10:27:41.618Z,165465.83
2019-03-15T10:30:11.803Z,165444.50
2019-03-15T10:32:40.023Z,165463.17
2019-03-15T10:35:08.382Z,165420.48
2019-03-15T10:37:36.444Z,165399.12
2019-03-15T10:40:06.447Z,165444.50
2019-03-15T10:42:35.263Z,165417.80
2019-03-15T10:45:04.803Z,165395.13
2019-03-15T10:47:33.084Z,165379.09
2019-03-15T10:50:02.029Z,165375.11
2019-03-15T10:52:30.649Z,165361.78
2019-03-15T10:54:58.988Z,165320.34
2019-03-15T10:57:28.529Z,165287.00
2019-03-15T10:59:57.654Z,165276.37
2019-03-15T11:02:25.895Z,165287.00
2019-03-15T11:04:54.091Z,165280.38
2019-03-15T11:07:22.599Z,165253.67
2019-03-15T11:09:51.159Z,165264.34
2019-03-15T11:12:19.808Z,165265.70
2019-03-15T11:14:48.339Z,165265.70
2019-03-15T11:17:16.405Z,165263.00
2019-03-15T11:19:44.676Z,165263.00
2019-03-15T11:22:12.795Z,165247.03
2019-03-15T11:24:43.567Z,165244.34
2019-03-15T11:27:11.039Z,165269.69
2019-03-15T11:29:39.209Z,165300.39
2019-03-15T11:32:08.584Z,165315.02
2019-03-15T11:34:36.810Z,165337.72
2019-03-15T11:37:04.936Z,165336.37
2019-03-15T11:39:33.013Z,165345.75
2019-03-15T11:42:01.126Z,165363.08
2019-03-15T11:44:29.288Z,165368.42
2019-03-15T11:46:57.516Z,165359.09
2019-03-15T11:49:28.207Z,165376.45
2019-03-15T11:51:55.888Z,165377.75
2019-03-15T11:54:24.322Z,165387.14
2019-03-15T11:56:52.704Z,165399.12
2019-03-15T11:59:20.935Z,165417.80
2019-03-15T12:01:49.125Z,165404.47
2019-03-15T12:04:17.666Z,165416.45
2019-03-15T12:06:45.785Z,165433.81
2019-03-15T12:09:14.313Z,165473.81
2019-03-15T12:11:42.447Z,165508.52
2019-03-15T12:14:10.617Z,165543.22
2019-03-15T12:16:38.714Z,165567.25
2019-03-15T12:19:07.124Z,165613.94
2019-03-15T12:21:35.576Z,165659.34
2019-03-15T12:24:03.717Z,165683.38
2019-03-15T12:26:40.360Z,165754.13
2019-03-15T12:29:01.948Z,165834.34
2019-03-15T12:31:30.157Z,165869.03
2019-03-15T12:33:58.358Z,165858.37
2019-03-15T12:36:26.431Z,165863.67
2019-03-15T12:38:54.628Z,165875.72
2019-03-15T12:41:24.803Z,165879.72
2019-03-15T12:43:52.956Z,165863.67
2019-03-15T12:46:21.096Z,165893.06
2019-03-15T12:48:49.219Z,165967.91
2019-03-15T12:51:17.340Z,166013.30
2019-03-15T12:53:45.447Z,166037.34
2019-03-15T12:56:13.702Z,166066.75
2019-03-15T12:58:41.829Z,166183.03
2019-03-15T13:01:09.913Z,166257.97
2019-03-15T13:03:38.059Z,166247.22
2019-03-15T13:06:06.157Z,166252.63
2019-03-15T13:08:34.390Z,166237.86
2019-03-15T13:11:02.499Z,166203.09
2019-03-15T13:13:30.626Z,166184.39
2019-03-15T13:15:58.727Z,166181.69
2019-03-15T13:18:27.069Z,166196.39
2019-03-15T13:20:55.217Z,166179.03
2019-03-15T13:23:23.404Z,166209.80
2019-03-15T13:25:51.605Z,166284.69
2019-03-15T13:28:19.749Z,166243.22
2019-03-15T13:30:47.973Z,166195.09
2019-03-15T13:33:20.934Z,166081.45
2019-03-15T13:35:47.534Z,165658.00
2019-03-15T13:38:15.782Z,165595.27
2019-03-15T13:40:43.924Z,165642.02
2019-03-15T13:43:12.204Z,165691.38
2019-03-15T13:45:40.443Z,165716.75
2019-03-15T13:48:08.778Z,165740.78
2019-03-15T13:50:36.893Z,165738.14
2019-03-15T13:53:04.945Z,165756.83
2019-03-15T13:55:33.244Z,165835.64
2019-03-15T13:58:01.301Z,165844.98
2019-03-15T14:00:29.449Z,165842.33
2019-03-15T14:02:57.537Z,165879.72
2019-03-15T14:05:25.667Z,165943.86
2019-03-15T14:07:53.857Z,165967.91
2019-03-15T14:10:21.985Z,166008.00
2019-03-15T14:12:50.212Z,166040.05
2019-03-15T14:15:18.405Z,166074.81
2019-03-15T14:17:46.508Z,166173.69
2019-03-15T14:20:14.590Z,166239.22
2019-03-15T14:22:42.776Z,166294.05
2019-03-15T14:25:11.294Z,166284.69
2019-03-15T14:27:39.498Z,166310.11
2019-03-15T14:30:09.641Z,166203.09
2019-03-15T14:32:37.726Z,166150.97
2019-03-15T14:35:06.893Z,166116.22
2019-03-15T14:37:35.110Z,166088.16
2019-03-15T14:40:03.646Z,166072.09
2019-03-15T14:42:31.826Z,166064.09
2019-03-15T14:45:00.097Z,166098.86
2019-03-15T14:47:28.449Z,166094.86
2019-03-15T14:49:57.060Z,166089.50
2019-03-15T14:52:25.328Z,166070.80
2019-03-15T14:54:53.698Z,166050.75
2019-03-15T14:57:22.183Z,166062.75
2019-03-15T14:59:50.767Z,166044.05
2019-03-15T15:02:18.938Z,166061.41
2019-03-15T15:04:47.484Z,166104.20
2019-03-15T15:07:16.147Z,166109.50
2019-03-15T15:09:47.343Z,166142.97
2019-03-15T15:12:14.484Z,166176.38
2019-03-15T15:14:42.690Z,166219.16
2019-03-15T15:17:10.799Z,166235.16
2019-03-15T15:19:39.344Z,166136.27
2019-03-15T15:22:08.273Z,166058.75
2019-03-15T15:24:37.064Z,166018.64
2019-03-15T15:27:05.267Z,165987.95
2019-03-15T15:29:33.415Z,165962.56
2019-03-15T15:32:02.552Z,165945.20
2019-03-15T15:34:31.103Z,165935.86
2019-03-15T15:36:59.848Z,165943.86
2019-03-15T15:39:28.161Z,165973.25
2019-03-15T15:41:58.572Z,165967.91
2019-03-15T15:44:26.550Z,165947.86
2019-03-15T15:46:54.927Z,165919.81
2019-03-15T15:49:26.033Z,165895.77
2019-03-15T15:51:53.091Z,165905.11
2019-03-15T15:54:21.213Z,165911.81
2019-03-15T15:56:50.917Z,165895.77
2019-03-15T15:59:19.198Z,165858.37
2019-03-15T16:01:47.351Z,165826.25
2019-03-15T16:04:15.615Z,165815.55
2019-03-15T16:06:44.372Z,165812.91
2019-03-15T16:09:12.532Z,165804.91
2019-03-15T16:11:40.685Z,165787.52
2019-03-15T16:14:08.775Z,165734.09
2019-03-15T16:16:36.958Z,165708.77
2019-03-15T16:19:05.219Z,165588.63
2019-03-15T16:21:34.241Z,165547.22
2019-03-15T16:24:02.398Z,165579.28
2019-03-15T16:26:31.217Z,165603.31
2019-03-15T16:28:59.431Z,165585.92
2019-03-15T16:31:27.603Z,165584.58
2019-03-15T16:33:55.749Z,165580.58
2019-03-15T16:36:23.835Z,165576.58
2019-03-15T16:38:52.059Z,165587.28
2019-03-15T16:41:20.208Z,165591.27
2019-03-15T16:43:48.355Z,165608.59
2019-03-15T16:46:16.429Z,165623.28
2019-03-15T16:48:44.514Z,165625.98
2019-03-15T16:51:19.346Z,165611.30
2019-03-15T16:53:42.672Z,165625.98
2019-03-15T16:56:11.952Z,165654.02
2019-03-15T16:58:45.447Z,165628.63
2019-03-15T17:01:10.412Z,165623.28
2019-03-15T17:03:38.852Z,165595.27
2019-03-15T17:06:07.819Z,165585.92
2019-03-15T17:08:35.965Z,165577.94
2019-03-15T17:11:04.295Z,165544.58
2019-03-15T17:13:32.456Z,165543.22
2019-03-15T17:16:00.897Z,165519.20
2019-03-15T17:18:29.151Z,165487.19
2019-03-15T17:20:57.453Z,165515.20
2019-03-15T17:23:25.558Z,165481.84
2019-03-15T17:25:53.661Z,165471.17
2019-03-15T17:28:22.427Z,165475.16
2019-03-15T17:30:50.575Z,165472.52
2019-03-15T17:33:18.688Z,165465.83
2019-03-15T17:35:46.808Z,165431.12
2019-03-15T17:38:14.910Z,165413.80
2019-03-15T17:40:43.014Z,165417.80
2019-03-15T17:43:12.601Z,165404.47
2019-03-15T17:45:40.807Z,165411.16
2019-03-15T17:48:08.915Z,165393.78
2019-03-15T17:50:37.040Z,165384.44
2019-03-15T17:53:05.201Z,165345.75
2019-03-15T17:55:33.440Z,165369.77
2019-03-15T17:58:01.834Z,165359.09
2019-03-15T18:00:35.349Z,165349.75
2019-03-15T18:03:04.086Z,165348.45
2019-03-15T18:05:32.171Z,165327.03
2019-03-15T18:08:00.452Z,165321.70
2019-03-15T18:10:28.523Z,165343.11
2019-03-15T18:12:57.009Z,165303.03
2019-03-15T18:15:25.453Z,165280.38
2019-03-15T18:17:53.707Z,165289.70
2019-03-15T18:20:21.852Z,165271.05
2019-03-15T18:22:50.014Z,165287.00
2019-03-15T18:25:18.335Z,165279.03
2019-03-15T18:27:47.095Z,165272.34
2019-03-15T18:30:15.446Z,165283.02
2019-03-15T18:32:43.602Z,165284.38
2019-03-15T18:35:12.535Z,165284.38
2019-03-15T18:37:40.810Z,165287.00
2019-03-15T18:40:09.811Z,165279.03
2019-03-15T18:42:38.380Z,165271.05
2019-03-15T18:45:09.688Z,165267.00
2019-03-15T18:47:37.766Z,165273.69
2019-03-15T18:50:08.394Z,165277.67
2019-03-15T18:52:36.601Z,165269.69
2019-03-15T18:55:05.845Z,165268.34
2019-03-15T18:57:34.335Z,165283.02
2019-03-15T19:00:02.711Z,165287.00
2019-03-15T19:02:30.850Z,165253.67
2019-03-15T19:04:59.001Z,165229.67
2019-03-15T19:07:27.101Z,165217.69
2019-03-15T19:09:55.647Z,165223.03
2019-03-15T19:12:23.774Z,165216.34
2019-03-15T19:14:51.952Z,165220.34
2019-03-15T19:17:20.182Z,165232.38
2019-03-15T19:19:48.828Z,165225.69
2019-03-15T19:22:17.145Z,165213.70
2019-03-15T19:24:45.261Z,165232.38
2019-03-15T19:27:13.370Z,165217.69
2019-03-15T19:29:53.122Z,165237.70
2019-03-15T19:32:11.654Z,165227.03
2019-03-15T19:34:39.842Z,165223.03
2019-03-15T19:37:07.938Z,165241.70
2019-03-15T19:39:36.170Z,165225.69
2019-03-15T19:42:04.318Z,165233.66
2019-03-15T19:44:32.563Z,165228.38
2019-03-15T19:47:00.860Z,165208.36
2019-03-15T19:49:30.791Z,165197.69
2019-03-15T19:51:58.947Z,165169.70
2019-03-15T19:54:27.135Z,165149.69
2019-03-15T19:56:55.741Z,165155.03
2019-03-15T19:59:24.290Z,165153.69
2019-03-15T20:01:52.421Z,165124.34
2019-03-15T20:04:20.530Z,165123.00
2019-03-15T20:06:49.935Z,165104.34
2019-03-15T20:09:18.777Z,165108.33
2019-03-15T20:11:46.976Z,165107.03
2019-03-15T20:14:15.242Z,165104.34
2019-03-15T20:16:43.477Z,165109.67
2019-03-15T20:19:11.598Z,165111.03
2019-03-15T20:21:39.796Z,165105.69
2019-03-15T20:24:07.986Z,165088.38
2019-03-15T20:26:36.250Z,165076.36
2019-03-15T20:29:04.386Z,165060.34
2019-03-15T20:31:32.696Z,165057.70
2019-03-15T20:34:00.815Z,165052.38
2019-03-15T20:36:29.019Z,165047.03
2019-03-15T20:38:57.260Z,165015.06
2019-03-15T20:41:25.345Z,165001.75
2019-03-15T20:43:53.694Z,165009.72
2019-03-15T20:46:34.854Z,164996.41
2019-03-15T20:48:52.022Z,164996.41
2019-03-15T20:51:20.288Z,164988.38
2019-03-15T20:53:48.378Z,164965.75
2019-03-15T20:56:16.646Z,164977.75
2019-03-15T20:58:44.785Z,164984.39
2019-03-15T21:01:12.999Z,164972.42
2019-03-15T21:03:41.136Z,164977.75
2019-03-15T21:06:09.297Z,164981.75
2019-03-15T21:08:37.470Z,164987.08
2019-03-15T21:11:05.655Z,164972.42
2019-03-15T21:13:34.168Z,164967.09
2019-03-15T21:16:02.612Z,164967.09
2019-03-15T21:18:30.803Z,164944.44
2019-03-15T21:20:58.892Z,164955.06
2019-03-15T21:23:27.031Z,164973.72
2019-03-15T21:25:55.138Z,164961.75
2019-03-15T21:28:23.276Z,164967.09
2019-03-15T21:30:51.920Z,164956.41
2019-03-15T21:33:20.039Z,164940.41
2019-03-15T21:35:48.511Z,164953.77
2019-03-15T21:38:16.669Z,164964.39
2019-03-15T21:40:44.771Z,164945.73
2019-03-15T21:43:12.952Z,164960.41
2019-03-15T21:45:41.009Z,164932.44
2019-03-15T21:48:09.150Z,164940.41
2019-03-15T21:50:37.302Z,164911.14
2019-03-15T21:53:05.413Z,164940.41
2019-03-15T21:55:33.563Z,164932.44
2019-03-15T21:58:01.771Z,164929.78
2019-03-15T22:00:29.896Z,164929.78
2019-03-15T22:02:58.082Z,164925.75
2019-03-15T22:05:26.191Z,164937.77
2019-03-15T22:07:54.340Z,164927.09
2019-03-15T22:10:22.440Z,164931.08
2019-03-15T22:12:50.543Z,164905.81
2019-03-15T22:15:18.756Z,164916.42
2019-03-15T22:17:47.271Z,164921.75
2019-03-15T22:20:15.590Z,164929.78
2019-03-15T22:22:43.684Z,164921.75
2019-03-15T22:25:11.784Z,164920.47
2019-03-15T22:27:40.024Z,164912.44
2019-03-15T22:30:08.355Z,164928.44
2019-03-15T22:32:36.508Z,164923.11
2019-03-15T22:35:04.839Z,164915.12
2019-03-15T22:37:33.039Z,164921.75
2019-03-15T22:40:01.204Z,164924.45
2019-03-15T22:42:29.490Z,164925.75
2019-03-15T22:44:59.959Z,164929.78
2019-03-15T22:47:28.155Z,164932.44
2019-03-15T22:49:56.362Z,164919.13
2019-03-15T22:52:24.741Z,164920.47
2019-03-15T22:54:52.999Z,164937.77
2019-03-15T22:57:21.123Z,164935.13
2019-03-15T22:59:49.332Z,164935.13
2019-03-15T23:02:17.658Z,164935.13
2019-03-15T23:04:45.846Z,164931.08
2019-03-15T23:07:14.688Z,164949.73
2019-03-15T23:09:43.230Z,164944.44
2019-03-15T23:12:12.333Z,164944.44
2019-03-15T23:14:40.528Z,164939.11
2019-03-15T23:17:08.682Z,164924.45
2019-03-15T23:19:36.839Z,164935.13
2019-03-15T23:22:04.959Z,164940.41
2019-03-15T23:24:33.075Z,164933.78
2019-03-15T23:27:02.214Z,164929.78
2019-03-15T23:29:30.403Z,164924.45
2019-03-15T23:31:58.559Z,164927.09
2019-03-15T23:34:26.944Z,164919.13
2019-03-15T23:36:55.026Z,164911.14
2019-03-15T23:39:23.264Z,164921.75
2019-03-15T23:41:55.116Z,164913.78
2019-03-15T23:44:22.640Z,164929.78
2019-03-15T23:46:50.861Z,164921.75
2019-03-15T23:49:18.909Z,164899.13
2019-03-15T23:51:47.454Z,164905.81
2019-03-15T23:54:15.680Z,164908.44
2019-03-15T23:56:44.104Z,164919.13
2019-03-15T23:59:12.194Z,164907.09
